Portada
METAR-TAF:

METAR-TAF

Aeropuertos :

Aeropuerto de Pamplona

Pamplona, España

latitud: 42-46N, longitud: 001-38W, altitud: 459 m

Observación

El informe se hizo hace 28 minutos, a las 22:00 UTC
Viento 1 kt del noreste
Temperatura 14°C
Humedad 63%
Presión 1017 hPa
Visibilidad 10 km o más
Escasas nubes a una altura de 5000 ft

METAR: LEPP 162200Z 05001KT 9999 FEW050 14/07 Q1017

Hora: 00:28 (22:28 UTC)

Pronóstico

El informe se hizo hace 2 horas y 28 minutos, a las 20:00 UTC
Pronóstico válido del 16 a las 21 UTC al 17 a las 21 UTC
Viento 8 kt del sur
Visibilidad 10 km o más
Nubes dispersas a una altura de 5000 ft
Probabilidad 40% :
Temporalmente
del 17 a las 03 UTC al 17 a las 12 UTC
lluvia

TAF: LEPP 162000Z 1621/1721 18008KT 9999 SCT050 TX21/1715Z TN10/1705Z PROB40 TEMPO 1703/1712 RA

Observaciones y pronósticos meteorológicos de más de 4000 aeropuertos (mensajes METAR y TAF).

Los puntos amarillos y rojos representan las estaciones disponibles.

Ponga el ratón en el punto deseado para ver el nombre de la estación.

Haga clic para ver las observaciones y los pronósticos meteorológicos.

Para cambiar el mapa : haga clic en los botones verdes con una cruz de color negro para hacer un zoom, en el botón verde con un guión para alejar o en las flechas verdes para mapas adyacentes.


METAR-TAF: